20V

Mc Elroy Airfield Airport

Kremmling, Colorado, USA
METAR K20V 242312Z AUTO 24007KT 10SM CLR 15/01 A3006 RMK AO2
Observed Flight Rules
Sep-24 @ 23:12 UTC (8 minutes ago) Visual Flight Rules
Wind Visibility Clouds
240° at 7 knots 10 miles
  • Clear skies
Temperatures Readings
Current 15°C / 59°F
Dewpoint 1°C / 34°F
Humidity 39%
Altimeter 30.06" Hg
Pressure 1018 hPa
Elevation 2259
METAR K20V 242312Z AUTO 24007KT 10SM CLR 15/01 A3006 RMK AO2
Observed Flight Rules
Sep-24 @ 23:12 UTC
(8 minutes ago)
VFR
Wind Visibility
240° at 7 knots 10 miles
Clouds
  • Clear skies
Temperature Dewpoint
15°C / 59°F 1°C / 34°F
Humidity Altimeter Pressure
39% 30.06" Hg 1018 hPa